Paro Airport

VQPR | PBH

Paro , Paro , Bhutan

Sunday, June 7th, 2020 | 13:04

Weather

VQPR 070700Z 14015KT 9999 SCT040 SCT070 27/12 Q1013

Charts

No Charts Available

Gates

7 Available

Runways

1 Available

Active ATC

Events -Coming Soon-

1 Events Coming Up Soon

Next event:
VQPR Flyout